Time,TemperatureF,DewpointF,PressureIn,WindDirection,WindDirectionDegrees,WindSpeedMPH,WindSpeedGustMPH,Humidity,HourlyPrecipIn,Conditions,Clouds,dailyrainin,SolarRadiationWatts/m^2,SoftwareType,DateUTC
2013-08-11 00:01:00,79.6,76.4,30.11,SE,128,2.0,7.0,90,0.00,,,0.00,0,Wunderground v.1.15,2013-08-11 04:01:00,
2013-08-11 00:02:00,79.6,76.4,30.11,SE,128,2.0,7.0,90,0.00,,,0.00,0,Wunderground v.1.15,2013-08-11 04:02:00,
2013-08-11 00:03:00,79.6,76.4,30.11,SE,128,2.0,7.0,90,0.00,,,0.00,0,Wunderground v.1.15,2013-08-11 04:03:00,
2013-08-11 00:05:00,79.6,76.4,30.11,SE,128,2.0,7.0,90,0.00,,,0.00,0,Wunderground v.1.15,2013-08-11 04:05:00,
2013-08-11 00:09:00,79.5,76.3,30.11,SE,128,2.0,7.0,90,0.00,,,0.00,0,Wunderground v.1.15,2013-08-11 04:09:00,
2013-08-11 00:14:00,79.4,76.2,30.11,SE,128,1.0,7.0,90,0.00,,,0.00,0,Wunderground v.1.15,2013-08-11 04:14:00,
2013-08-11 00:19:00,79.3,76.1,30.11,SE,128,1.0,7.0,90,0.00,,,0.00,0,Wunderground v.1.15,2013-08-11 04:19:00,
2013-08-11 00:25:00,79.2,76.0,30.11,SE,128,1.0,7.0,90,0.00,,,0.00,0,Wunderground v.1.15,2013-08-11 04:25:00,
2013-08-11 00:30:00,79.2,76.3,30.11,SE,128,1.0,7.0,91,0.00,,,0.00,0,Wunderground v.1.15,2013-08-11 04:30:00,
2013-08-11 00:35:00,79.1,76.2,30.11,SE,128,1.0,7.0,91,0.00,,,0.00,0,Wunderground v.1.15,2013-08-11 04:35:00,
2013-08-11 00:41:00,79.0,76.1,30.11,SE,128,1.0,1.0,91,0.00,,,0.00,0,Wunderground v.1.15,2013-08-11 04:41:00,
2013-08-11 00:46:00,78.9,76.0,30.11,SE,128,0.0,2.0,91,0.00,,,0.00,0,Wunderground v.1.15,2013-08-11 04:46:00,
2013-08-11 00:51:00,78.8,75.9,30.11,SE,128,0.0,2.0,91,0.00,,,0.00,0,Wunderground v.1.15,2013-08-11 04:51:00,
2013-08-11 00:57:00,78.7,76.2,30.12,SE,128,0.0,2.0,92,0.00,,,0.00,0,Wunderground v.1.15,2013-08-11 04:57:00,
2013-08-11 01:02:00,78.6,76.1,30.12,SE,128,0.0,5.0,92,0.00,,,0.00,0,Wunderground v.1.15,2013-08-11 05:02:00,
2013-08-11 01:07:00,78.5,76.0,30.12,SE,128,0.0,5.0,92,0.00,,,0.00,0,Wunderground v.1.15,2013-08-11 05:07:00,
2013-08-11 01:12:00,78.4,75.9,30.12,SE,128,0.0,5.0,92,0.00,,,0.00,0,Wunderground v.1.15,2013-08-11 05:12:00,
2013-08-11 01:18:00,78.3,75.8,30.12,SE,128,0.0,5.0,92,0.00,,,0.00,0,Wunderground v.1.15,2013-08-11 05:18:00,
2013-08-11 01:23:00,78.2,75.7,30.12,SE,128,0.0,5.0,92,0.00,,,0.00,0,Wunderground v.1.15,2013-08-11 05:23:00,
2013-08-11 01:29:00,78.1,75.9,30.12,SE,128,0.0,5.0,93,0.00,,,0.00,0,Wunderground v.1.15,2013-08-11 05:29:00,
2013-08-11 01:35:00,78.0,75.8,30.12,SE,128,0.0,5.0,93,0.00,,,0.00,0,Wunderground v.1.15,2013-08-11 05:35:00,
2013-08-11 01:41:00,78.0,75.8,30.12,SE,128,0.0,0.0,93,0.00,,,0.00,0,Wunderground v.1.15,2013-08-11 05:41:00,
2013-08-11 01:47:00,77.9,75.7,30.12,SE,128,0.0,0.0,93,0.00,,,0.00,0,Wunderground v.1.15,2013-08-11 05:47:00,
2013-08-11 01:52:00,77.9,75.7,30.12,SE,128,0.0,0.0,93,0.00,,,0.00,0,Wunderground v.1.15,2013-08-11 05:52:00,
2013-08-11 01:57:00,77.8,75.6,30.12,SE,128,0.0,0.0,93,0.00,,,0.00,0,Wunderground v.1.15,2013-08-11 05:57:00,
2013-08-11 02:03:00,77.8,75.6,30.11,SE,128,0.0,4.0,93,0.00,,,0.00,0,Wunderground v.1.15,2013-08-11 06:03:00,
2013-08-11 02:09:00,77.7,75.5,30.11,SE,128,0.0,4.0,93,0.00,,,0.00,0,Wunderground v.1.15,2013-08-11 06:09:00,
2013-08-11 02:15:00,77.7,75.8,30.11,SE,128,1.0,4.0,94,0.00,,,0.00,0,Wunderground v.1.15,2013-08-11 06:15:00,
2013-08-11 02:20:00,77.6,75.7,30.11,SE,128,1.0,4.0,94,0.00,,,0.00,0,Wunderground v.1.15,2013-08-11 06:20:00,
2013-08-11 02:25:00,77.6,75.7,30.11,SE,128,0.0,4.0,94,0.00,,,0.00,0,Wunderground v.1.15,2013-08-11 06:25:00,
2013-08-11 02:30:00,77.6,75.7,30.11,SE,128,1.0,1.0,94,0.00,,,0.00,0,Wunderground v.1.15,2013-08-11 06:30:00,
2013-08-11 02:36:00,77.5,75.6,30.11,SE,128,1.0,4.0,94,0.00,,,0.00,0,Wunderground v.1.15,2013-08-11 06:36:00,
2013-08-11 02:41:00,77.5,75.6,30.11,SE,128,1.0,1.0,94,0.00,,,0.00,0,Wunderground v.1.15,2013-08-11 06:41:00,
2013-08-11 02:48:00,77.5,75.6,30.10,SE,128,0.0,1.0,94,0.00,,,0.00,0,Wunderground v.1.15,2013-08-11 06:48:00,
2013-08-11 02:53:00,77.4,75.5,30.10,SE,128,0.0,0.0,94,0.00,,,0.00,0,Wunderground v.1.15,2013-08-11 06:53:00,
2013-08-11 02:58:00,77.4,75.5,30.10,SE,128,1.0,2.0,94,0.00,,,0.00,0,Wunderground v.1.15,2013-08-11 06:58:00,
2013-08-11 03:04:00,77.3,75.4,30.10,SE,128,1.0,3.0,94,0.00,,,0.00,0,Wunderground v.1.15,2013-08-11 07:04:00,
2013-08-11 03:09:00,77.3,75.8,30.10,SE,128,1.0,3.0,95,0.00,,,0.00,0,Wunderground v.1.15,2013-08-11 07:09:00,
2013-08-11 03:14:00,77.2,75.7,30.11,SE,128,1.0,3.0,95,0.00,,,0.00,0,Wunderground v.1.15,2013-08-11 07:14:00,
2013-08-11 03:20:00,77.2,75.7,30.10,SE,128,1.0,1.0,95,0.00,,,0.00,0,Wunderground v.1.15,2013-08-11 07:20:00,
2013-08-11 03:26:00,77.3,75.8,30.10,SE,128,2.0,3.0,95,0.00,,,0.00,0,Wunderground v.1.15,2013-08-11 07:26:00,
2013-08-11 03:33:00,77.3,75.8,30.10,SE,128,2.0,3.0,95,0.00,,,0.00,0,Wunderground v.1.15,2013-08-11 07:33:00,
2013-08-11 03:38:00,77.3,75.8,30.10,SE,128,2.0,3.0,95,0.00,,,0.00,0,Wunderground v.1.15,2013-08-11 07:38:00,
2013-08-11 03:44:00,77.3,75.8,30.09,SE,128,2.0,4.0,95,0.00,,,0.00,0,Wunderground v.1.15,2013-08-11 07:44:00,
2013-08-11 03:49:00,77.3,75.8,30.09,SE,128,1.0,4.0,95,0.00,,,0.00,0,Wunderground v.1.15,2013-08-11 07:49:00,
2013-08-11 03:55:00,77.3,75.8,30.09,SE,128,1.0,2.0,95,0.00,,,0.00,0,Wunderground v.1.15,2013-08-11 07:55:00,
2013-08-11 04:01:00,77.3,75.8,30.10,SE,128,0.0,3.0,95,0.00,,,0.00,0,Wunderground v.1.15,2013-08-11 08:01:00,
2013-08-11 04:06:00,77.3,75.8,30.09,SE,128,0.0,3.0,95,0.00,,,0.00,0,Wunderground v.1.15,2013-08-11 08:06:00,
2013-08-11 04:12:00,77.3,75.8,30.09,SE,128,0.0,3.0,95,0.00,,,0.00,0,Wunderground v.1.15,2013-08-11 08:12:00,
2013-08-11 04:19:00,77.3,75.8,30.09,SE,128,0.0,3.0,95,0.00,,,0.00,0,Wunderground v.1.15,2013-08-11 08:19:00,
2013-08-11 04:27:00,77.3,75.8,30.10,SE,128,0.0,3.0,95,0.00,,,0.00,0,Wunderground v.1.15,2013-08-11 08:27:00,
2013-08-11 04:33:00,77.2,75.7,30.10,SE,128,0.0,3.0,95,0.00,,,0.00,0,Wunderground v.1.15,2013-08-11 08:33:00,
2013-08-11 04:38:00,77.2,75.7,30.09,SE,128,0.0,3.0,95,0.00,,,0.00,0,Wunderground v.1.15,2013-08-11 08:38:00,
2013-08-11 04:43:00,77.1,75.9,30.09,SE,128,0.0,0.0,96,0.00,,,0.00,0,Wunderground v.1.15,2013-08-11 08:43:00,
2013-08-11 04:50:00,77.1,75.9,30.09,SE,128,0.0,0.0,96,0.00,,,0.00,0,Wunderground v.1.15,2013-08-11 08:50:00,
2013-08-11 04:55:00,77.1,75.9,30.09,SE,128,0.0,0.0,96,0.00,,,0.00,0,Wunderground v.1.15,2013-08-11 08:55:00,
2013-08-11 05:00:00,77.0,75.8,30.10,SE,128,0.0,0.0,96,0.00,,,0.00,0,Wunderground v.1.15,2013-08-11 09:00:00,
2013-08-11 05:06:00,76.8,75.3,30.10,SE,128,0.0,4.0,95,0.00,,,0.00,0,Wunderground v.1.15,2013-08-11 09:06:00,
2013-08-11 05:11:00,76.8,75.6,30.10,SE,128,1.0,4.0,96,0.00,,,0.00,0,Wunderground v.1.15,2013-08-11 09:11:00,
2013-08-11 05:16:00,76.8,75.6,30.10,SE,128,2.0,4.0,96,0.00,,,0.00,0,Wunderground v.1.15,2013-08-11 09:16:00,
2013-08-11 05:22:00,76.9,75.7,30.10,SE,128,1.0,4.0,96,0.00,,,0.00,0,Wunderground v.1.15,2013-08-11 09:22:00,
2013-08-11 05:27:00,76.8,75.6,30.10,SE,128,0.0,4.0,96,0.00,,,0.00,0,Wunderground v.1.15,2013-08-11 09:27:00,
2013-08-11 05:32:00,76.8,75.6,30.10,SE,128,0.0,4.0,96,0.00,,,0.00,0,Wunderground v.1.15,2013-08-11 09:32:00,
2013-08-11 05:38:00,76.7,75.5,30.10,SE,128,0.0,4.0,96,0.00,,,0.00,0,Wunderground v.1.15,2013-08-11 09:38:00,
2013-08-11 05:43:00,76.7,75.5,30.10,SE,128,0.0,0.0,96,0.00,,,0.00,0,Wunderground v.1.15,2013-08-11 09:43:00,
2013-08-11 05:48:00,76.8,75.6,30.10,SE,128,0.0,0.0,96,0.00,,,0.00,0,Wunderground v.1.15,2013-08-11 09:48:00,
2013-08-11 05:54:00,76.7,75.5,30.10,SE,128,0.0,0.0,96,0.00,,,0.00,0,Wunderground v.1.15,2013-08-11 09:54:00,
2013-08-11 05:59:00,76.7,75.5,30.10,SE,128,0.0,0.0,96,0.00,,,0.00,0,Wunderground v.1.15,2013-08-11 09:59:00,
2013-08-11 06:04:00,76.8,75.6,30.10,SE,128,0.0,3.0,96,0.00,,,0.00,0,Wunderground v.1.15,2013-08-11 10:04:00,
2013-08-11 06:10:00,76.7,75.5,30.10,SE,128,0.0,3.0,96,0.00,,,0.00,0,Wunderground v.1.15,2013-08-11 10:10:00,
2013-08-11 06:15:00,76.7,75.5,30.10,SE,128,0.0,3.0,96,0.00,,,0.00,0,Wunderground v.1.15,2013-08-11 10:15:00,
2013-08-11 06:21:00,76.6,75.4,30.10,SE,128,1.0,3.0,96,0.00,,,0.00,0,Wunderground v.1.15,2013-08-11 10:21:00,
2013-08-11 06:26:00,76.6,75.4,30.10,SE,128,1.0,3.0,96,0.00,,,0.00,0,Wunderground v.1.15,2013-08-11 10:26:00,
2013-08-11 06:31:00,76.6,75.4,30.10,SE,128,0.0,3.0,96,0.00,,,0.00,0,Wunderground v.1.15,2013-08-11 10:31:00,
2013-08-11 06:37:00,76.6,75.4,30.10,SE,128,1.0,3.0,96,0.00,,,0.00,0,Wunderground v.1.15,2013-08-11 10:37:00,
2013-08-11 06:44:00,76.6,75.4,30.11,SE,128,0.0,1.0,96,0.00,,,0.00,0,Wunderground v.1.15,2013-08-11 10:44:00,
2013-08-11 06:51:00,76.6,75.4,30.11,SE,128,0.0,0.0,96,0.00,,,0.00,0,Wunderground v.1.15,2013-08-11 10:51:00,
2013-08-11 06:56:00,76.6,75.4,30.11,SE,128,0.0,0.0,96,0.00,,,0.00,5,Wunderground v.1.15,2013-08-11 10:56:00,
2013-08-11 07:02:00,76.5,75.3,30.11,SE,128,1.0,3.0,96,0.00,,,0.00,9,Wunderground v.1.15,2013-08-11 11:02:00,
2013-08-11 07:07:00,76.6,75.7,30.11,SE,128,2.0,4.0,97,0.00,,,0.00,14,Wunderground v.1.15,2013-08-11 11:07:00,
2013-08-11 07:12:00,76.8,75.9,30.11,SE,128,3.0,3.0,97,0.00,,,0.00,19,Wunderground v.1.15,2013-08-11 11:12:00,
2013-08-11 07:18:00,76.9,76.0,30.11,SE,128,2.0,3.0,97,0.00,,,0.00,26,Wunderground v.1.15,2013-08-11 11:18:00,
2013-08-11 07:26:00,77.1,76.2,30.11,SE,128,0.0,3.0,97,0.00,,,0.00,35,Wunderground v.1.15,2013-08-11 11:26:00,
2013-08-11 07:32:00,77.1,76.2,30.11,SE,128,0.0,3.0,97,0.00,,,0.00,44,Wunderground v.1.15,2013-08-11 11:32:00,
2013-08-11 07:38:00,77.2,76.3,30.12,SE,128,0.0,3.0,97,0.00,,,0.00,54,Wunderground v.1.15,2013-08-11 11:38:00,
2013-08-11 07:44:00,77.4,76.5,30.12,SE,128,0.0,0.0,97,0.00,,,0.00,56,Wunderground v.1.15,2013-08-11 11:44:00,
2013-08-11 07:49:00,77.6,76.7,30.12,SE,128,0.0,0.0,97,0.00,,,0.00,63,Wunderground v.1.15,2013-08-11 11:49:00,
2013-08-11 07:55:00,77.8,76.9,30.12,SE,128,0.0,0.0,97,0.00,,,0.00,79,Wunderground v.1.15,2013-08-11 11:55:00,
2013-08-11 08:01:00,78.2,77.3,30.12,SE,128,0.0,4.0,97,0.00,,,0.00,130,Wunderground v.1.15,2013-08-11 12:01:00,
2013-08-11 08:06:00,78.5,77.6,30.12,SE,128,0.0,4.0,97,0.00,,,0.00,146,Wunderground v.1.15,2013-08-11 12:06:00,
2013-08-11 08:11:00,79.0,78.1,30.12,SE,128,0.0,4.0,97,0.00,,,0.00,158,Wunderground v.1.15,2013-08-11 12:11:00,
2013-08-11 08:17:00,79.5,78.6,30.12,SE,128,0.0,4.0,97,0.00,,,0.00,181,Wunderground v.1.15,2013-08-11 12:17:00,
2013-08-11 08:22:00,79.9,79.0,30.12,SE,128,0.0,4.0,97,0.00,,,0.00,199,Wunderground v.1.15,2013-08-11 12:22:00,
2013-08-11 08:27:00,80.2,79.0,30.12,SE,128,1.0,4.0,96,0.00,,,0.00,216,Wunderground v.1.15,2013-08-11 12:27:00,
2013-08-11 08:33:00,80.5,78.9,30.12,SE,128,2.0,4.0,95,0.00,,,0.00,236,Wunderground v.1.15,2013-08-11 12:33:00,
2013-08-11 08:39:00,80.8,78.9,30.13,SE,128,2.0,4.0,94,0.00,,,0.00,271,Wunderground v.1.15,2013-08-11 12:39:00,
2013-08-11 08:44:00,81.1,79.2,30.13,SE,128,1.0,5.0,94,0.00,,,0.00,283,Wunderground v.1.15,2013-08-11 12:44:00,
2013-08-11 08:50:00,81.3,78.8,30.13,SSE,148,3.0,6.0,92,0.00,,,0.00,309,Wunderground v.1.15,2013-08-11 12:50:00,
2013-08-11 08:56:00,81.6,79.0,30.13,SSE,159,6.0,8.0,92,0.00,,,0.00,327,Wunderground v.1.15,2013-08-11 12:56:00,
2013-08-11 09:01:00,82.0,79.1,30.13,SSE,159,5.0,6.0,91,0.00,,,0.00,360,Wunderground v.1.15,2013-08-11 13:01:00,
2013-08-11 09:07:00,82.4,79.2,30.13,SSE,156,5.0,7.0,90,0.00,,,0.00,378,Wunderground v.1.15,2013-08-11 13:07:00,
2013-08-11 09:12:00,82.7,79.1,30.13,SE,138,5.0,8.0,89,0.00,,,0.00,441,Wunderground v.1.15,2013-08-11 13:12:00,
2013-08-11 09:17:00,82.8,79.2,30.14,SE,145,5.0,8.0,89,0.00,,,0.00,401,Wunderground v.1.15,2013-08-11 13:17:00,
2013-08-11 09:23:00,83.1,79.5,30.14,SE,138,4.0,5.0,89,0.00,,,0.00,253,Wunderground v.1.15,2013-08-11 13:23:00,
2013-08-11 09:29:00,83.1,79.2,30.13,South,169,4.0,7.0,88,0.00,,,0.00,265,Wunderground v.1.15,2013-08-11 13:29:00,
2013-08-11 09:35:00,83.4,79.1,30.13,SSE,147,5.0,9.0,87,0.00,,,0.00,571,Wunderground v.1.15,2013-08-11 13:35:00,
2013-08-11 09:40:00,83.5,78.9,30.13,South,175,6.0,8.0,86,0.00,,,0.00,582,Wunderground v.1.15,2013-08-11 13:40:00,
2013-08-11 09:45:00,83.4,78.4,30.13,SSE,166,8.0,11.0,85,0.00,,,0.00,220,Wunderground v.1.15,2013-08-11 13:45:00,
2013-08-11 09:51:00,83.4,78.8,30.13,South,175,8.0,8.0,86,0.00,,,0.00,624,Wunderground v.1.15,2013-08-11 13:51:00,
2013-08-11 09:56:00,83.5,78.5,30.13,South,177,6.0,11.0,85,0.00,,,0.00,513,Wunderground v.1.15,2013-08-11 13:56:00,
2013-08-11 10:01:00,83.6,78.2,30.14,South,179,8.0,9.0,84,0.00,,,0.00,190,Wunderground v.1.15,2013-08-11 14:01:00,
2013-08-11 10:07:00,83.5,78.2,30.14,SSE,161,8.0,9.0,84,0.00,,,0.00,195,Wunderground v.1.15,2013-08-11 14:07:00,
2013-08-11 10:12:00,83.6,77.9,30.14,SSE,152,8.0,11.0,83,0.00,,,0.00,631,Wunderground v.1.15,2013-08-11 14:12:00,
2013-08-11 10:18:00,84.1,78.0,30.14,SSE,161,8.0,11.0,82,0.00,,,0.00,659,Wunderground v.1.15,2013-08-11 14:18:00,
2013-08-11 10:23:00,84.3,77.8,30.14,SSE,159,7.0,9.0,81,0.00,,,0.00,684,Wunderground v.1.15,2013-08-11 14:23:00,
2013-08-11 10:28:00,84.7,77.8,30.14,SSE,159,6.0,9.0,80,0.00,,,0.00,703,Wunderground v.1.15,2013-08-11 14:28:00,
2013-08-11 10:34:00,85.0,78.1,30.14,SSE,164,6.0,9.0,80,0.00,,,0.00,749,Wunderground v.1.15,2013-08-11 14:34:00,
2013-08-11 10:39:00,85.1,77.8,30.14,South,189,6.0,9.0,79,0.00,,,0.00,773,Wunderground v.1.15,2013-08-11 14:39:00,
2013-08-11 10:45:00,85.1,79.0,30.14,SSW,195,5.0,6.0,82,0.00,,,0.00,821,Wunderground v.1.15,2013-08-11 14:45:00,
2013-08-11 10:50:00,85.0,78.5,30.14,SSW,193,6.0,8.0,81,0.00,,,0.00,777,Wunderground v.1.15,2013-08-11 14:50:00,
2013-08-11 10:56:00,85.0,78.1,30.14,SSW,194,6.0,8.0,80,0.00,,,0.00,766,Wunderground v.1.15,2013-08-11 14:56:00,
2013-08-11 11:03:00,85.4,77.0,30.14,South,182,5.0,15.0,76,0.00,,,0.00,791,Wunderground v.1.15,2013-08-11 15:03:00,
2013-08-11 11:08:00,85.6,77.2,30.14,South,175,5.0,15.0,76,0.00,,,0.00,833,Wunderground v.1.15,2013-08-11 15:08:00,
2013-08-11 11:15:00,85.7,77.3,30.14,South,174,4.0,15.0,76,0.00,,,0.00,225,Wunderground v.1.15,2013-08-11 15:15:00,
2013-08-11 11:21:00,86.0,77.5,30.14,South,171,4.0,5.0,76,0.00,,,0.00,847,Wunderground v.1.15,2013-08-11 15:21:00,
2013-08-11 11:26:00,86.4,77.5,30.14,SSE,165,4.0,15.0,75,0.00,,,0.00,900,Wunderground v.1.15,2013-08-11 15:26:00,
2013-08-11 11:31:00,86.4,77.1,30.14,South,178,4.0,5.0,74,0.00,,,0.00,269,Wunderground v.1.15,2013-08-11 15:31:00,
2013-08-11 11:37:00,86.6,78.1,30.13,SSW,200,4.0,15.0,76,0.00,,,0.00,462,Wunderground v.1.15,2013-08-11 15:37:00,
2013-08-11 11:42:00,86.9,78.0,30.13,SSW,202,5.0,8.0,75,0.00,,,0.00,926,Wunderground v.1.15,2013-08-11 15:42:00,
2013-08-11 11:47:00,87.0,77.7,30.13,SSW,200,5.0,8.0,74,0.00,,,0.00,958,Wunderground v.1.15,2013-08-11 15:47:00,
2013-08-11 11:54:00,86.8,77.5,30.13,SSW,192,3.0,5.0,74,0.00,,,0.00,949,Wunderground v.1.15,2013-08-11 15:54:00,
2013-08-11 11:59:00,87.0,78.1,30.13,South,188,3.0,10.0,75,0.00,,,0.00,958,Wunderground v.1.15,2013-08-11 15:59:00,
2013-08-11 12:05:00,86.9,76.8,30.13,South,188,4.0,8.0,72,0.00,,,0.00,381,Wunderground v.1.15,2013-08-11 16:05:00,
2013-08-11 12:11:00,87.3,77.6,30.13,South,188,1.0,8.0,73,0.00,,,0.00,937,Wunderground v.1.15,2013-08-11 16:11:00,
2013-08-11 12:16:00,87.7,76.7,30.13,South,185,2.0,8.0,70,0.00,,,0.00,925,Wunderground v.1.15,2013-08-11 16:16:00,
2013-08-11 12:22:00,88.0,76.5,30.12,South,184,3.0,8.0,69,0.00,,,0.00,928,Wunderground v.1.15,2013-08-11 16:22:00,
2013-08-11 12:27:00,88.2,76.7,30.13,South,176,3.0,8.0,69,0.00,,,0.00,933,Wunderground v.1.15,2013-08-11 16:27:00,
2013-08-11 12:32:00,88.3,77.7,30.13,South,179,3.0,8.0,71,0.00,,,0.00,935,Wunderground v.1.15,2013-08-11 16:32:00,
2013-08-11 12:39:00,88.5,77.5,30.13,SSW,210,3.0,10.0,70,0.00,,,0.00,951,Wunderground v.1.15,2013-08-11 16:39:00,
2013-08-11 12:44:00,88.9,77.4,30.12,SSW,210,3.0,3.0,69,0.00,,,0.00,940,Wunderground v.1.15,2013-08-11 16:44:00,
2013-08-11 12:50:00,89.2,76.8,30.12,SSW,196,3.0,4.0,67,0.00,,,0.00,949,Wunderground v.1.15,2013-08-11 16:50:00,
2013-08-11 12:55:00,89.3,76.9,30.12,SSW,194,4.0,4.0,67,0.00,,,0.00,970,Wunderground v.1.15,2013-08-11 16:55:00,
2013-08-11 13:01:00,89.2,75.4,30.12,SSW,194,3.0,11.0,64,0.00,,,0.00,954,Wunderground v.1.15,2013-08-11 17:01:00,
2013-08-11 13:06:00,89.1,77.2,30.12,South,179,4.0,11.0,68,0.00,,,0.00,958,Wunderground v.1.15,2013-08-11 17:06:00,
2013-08-11 13:12:00,89.2,76.4,30.12,South,180,3.0,11.0,66,0.00,,,0.00,965,Wunderground v.1.15,2013-08-11 17:12:00,
2013-08-11 13:18:00,89.8,77.8,30.12,SSW,206,3.0,11.0,68,0.00,,,0.00,960,Wunderground v.1.15,2013-08-11 17:18:00,
2013-08-11 13:23:00,90.0,77.6,30.12,SSW,206,4.0,11.0,67,0.00,,,0.00,963,Wunderground v.1.15,2013-08-11 17:23:00,
2013-08-11 13:28:00,90.3,78.3,30.12,SSW,206,2.0,11.0,68,0.00,,,0.00,960,Wunderground v.1.15,2013-08-11 17:28:00,
2013-08-11 13:34:00,90.7,78.2,30.11,SSW,206,2.0,11.0,67,0.00,,,0.00,967,Wunderground v.1.15,2013-08-11 17:34:00,
2013-08-11 13:39:00,90.7,79.1,30.11,SSW,198,3.0,11.0,69,0.00,,,0.00,965,Wunderground v.1.15,2013-08-11 17:39:00,
2013-08-11 13:45:00,90.8,75.0,30.11,SSW,198,2.0,3.0,60,0.00,,,0.00,977,Wunderground v.1.15,2013-08-11 17:45:00,
2013-08-11 13:51:00,91.3,76.5,30.11,SSW,198,0.0,2.0,62,0.00,,,0.00,984,Wunderground v.1.15,2013-08-11 17:51:00,
2013-08-11 13:58:00,91.4,74.5,30.11,SSW,198,1.0,3.0,58,0.00,,,0.00,972,Wunderground v.1.15,2013-08-11 17:58:00,
2013-08-11 14:05:00,91.6,76.7,30.11,SSW,198,3.0,10.0,62,0.00,,,0.00,969,Wunderground v.1.15,2013-08-11 18:05:00,
2013-08-11 14:12:00,91.3,75.5,30.11,SSW,198,3.0,10.0,60,0.00,,,0.00,960,Wunderground v.1.15,2013-08-11 18:12:00,
2013-08-11 14:17:00,91.7,77.3,30.10,SSW,198,2.0,10.0,63,0.00,,,0.00,970,Wunderground v.1.15,2013-08-11 18:17:00,
2013-08-11 14:23:00,92.1,77.7,30.10,SSW,198,2.0,10.0,63,0.00,,,0.00,969,Wunderground v.1.15,2013-08-11 18:23:00,
2013-08-11 14:28:00,92.0,76.6,30.10,South,182,4.0,10.0,61,0.00,,,0.00,969,Wunderground v.1.15,2013-08-11 18:28:00,
2013-08-11 14:34:00,91.4,76.5,30.10,SSE,161,6.0,10.0,62,0.00,,,0.00,946,Wunderground v.1.15,2013-08-11 18:34:00,
2013-08-11 14:39:00,91.3,76.9,30.10,South,173,6.0,10.0,63,0.00,,,0.00,942,Wunderground v.1.15,2013-08-11 18:39:00,
2013-08-11 14:45:00,91.2,77.8,30.09,SSE,150,6.0,8.0,65,0.00,,,0.00,935,Wunderground v.1.15,2013-08-11 18:45:00,
2013-08-11 14:51:00,91.4,76.5,30.09,SSE,147,5.0,5.0,62,0.00,,,0.00,965,Wunderground v.1.15,2013-08-11 18:51:00,
2013-08-11 14:56:00,91.9,75.5,30.09,SE,138,3.0,6.0,59,0.00,,,0.00,958,Wunderground v.1.15,2013-08-11 18:56:00,
2013-08-11 15:04:00,92.0,77.1,30.08,South,170,4.0,10.0,62,0.00,,,0.00,935,Wunderground v.1.15,2013-08-11 19:04:00,
2013-08-11 15:09:00,92.1,77.2,30.08,South,182,4.0,10.0,62,0.00,,,0.00,969,Wunderground v.1.15,2013-08-11 19:09:00,
2013-08-11 15:14:00,92.1,78.2,30.08,SE,145,5.0,10.0,64,0.00,,,0.00,991,Wunderground v.1.15,2013-08-11 19:14:00,
2013-08-11 15:20:00,92.1,77.2,30.08,SSE,157,7.0,7.0,62,0.00,,,0.00,963,Wunderground v.1.15,2013-08-11 19:20:00,
2013-08-11 15:26:00,91.9,78.0,30.08,South,171,6.0,10.0,64,0.00,,,0.00,984,Wunderground v.1.15,2013-08-11 19:26:00,
2013-08-11 15:31:00,92.0,76.1,30.07,SE,133,5.0,10.0,60,0.00,,,0.00,988,Wunderground v.1.15,2013-08-11 19:31:00,
2013-08-11 15:37:00,92.2,76.3,30.07,SSE,147,7.0,10.0,60,0.00,,,0.00,853,Wunderground v.1.15,2013-08-11 19:37:00,
2013-08-11 15:43:00,92.3,75.9,30.07,SSE,151,5.0,6.0,59,0.00,,,0.00,900,Wunderground v.1.15,2013-08-11 19:43:00,
2013-08-11 15:49:00,92.7,76.8,30.06,SSE,155,3.0,8.0,60,0.00,,,0.00,921,Wunderground v.1.15,2013-08-11 19:49:00,
2013-08-11 15:55:00,92.6,74.1,30.06,SE,133,6.0,9.0,55,0.00,,,0.00,812,Wunderground v.1.15,2013-08-11 19:55:00,
2013-08-11 16:01:00,92.9,74.4,30.06,SE,133,4.0,13.0,55,0.00,,,0.00,751,Wunderground v.1.15,2013-08-11 20:01:00,
2013-08-11 16:06:00,93.3,73.0,30.06,SE,133,3.0,13.0,52,0.00,,,0.00,714,Wunderground v.1.15,2013-08-11 20:06:00,
2013-08-11 16:12:00,93.5,73.8,30.06,ESE,111,2.0,13.0,53,0.00,,,0.00,722,Wunderground v.1.15,2013-08-11 20:12:00,
2013-08-11 16:17:00,93.8,72.9,30.06,East,94,2.0,13.0,51,0.00,,,0.00,731,Wunderground v.1.15,2013-08-11 20:17:00,
2013-08-11 16:23:00,94.1,73.2,30.06,East,94,2.0,13.0,51,0.00,,,0.00,735,Wunderground v.1.15,2013-08-11 20:23:00,
2013-08-11 16:29:00,94.0,73.7,30.06,SSE,150,2.0,13.0,52,0.00,,,0.00,698,Wunderground v.1.15,2013-08-11 20:29:00,
2013-08-11 16:36:00,93.7,74.5,30.05,SSE,164,3.0,13.0,54,0.00,,,0.00,728,Wunderground v.1.15,2013-08-11 20:36:00,
2013-08-11 16:41:00,93.5,77.5,30.05,SSW,201,4.0,8.0,60,0.00,,,0.00,722,Wunderground v.1.15,2013-08-11 20:41:00,
2013-08-11 16:46:00,93.1,75.1,30.05,SSE,167,6.0,8.0,56,0.00,,,0.00,721,Wunderground v.1.15,2013-08-11 20:46:00,
2013-08-11 16:52:00,93.2,75.2,30.05,South,180,4.0,5.0,56,0.00,,,0.00,749,Wunderground v.1.15,2013-08-11 20:52:00,
2013-08-11 16:57:00,93.1,76.6,30.05,SE,138,5.0,11.0,59,0.00,,,0.00,724,Wunderground v.1.15,2013-08-11 20:57:00,
2013-08-11 17:02:00,93.0,78.1,30.05,ESE,118,8.0,13.0,62,0.00,,,0.00,670,Wunderground v.1.15,2013-08-11 21:02:00,
2013-08-11 17:08:00,92.9,78.9,30.05,ESE,113,9.0,13.0,64,0.00,,,0.00,629,Wunderground v.1.15,2013-08-11 21:08:00,
2013-08-11 17:13:00,92.8,78.8,30.05,ESE,111,7.0,11.0,64,0.00,,,0.00,621,Wunderground v.1.15,2013-08-11 21:13:00,
2013-08-11 17:18:00,92.7,78.3,30.05,SE,128,7.0,11.0,63,0.00,,,0.00,352,Wunderground v.1.15,2013-08-11 21:18:00,
2013-08-11 17:24:00,92.4,79.8,30.04,SE,142,7.0,17.0,67,0.00,,,0.00,554,Wunderground v.1.15,2013-08-11 21:24:00,
2013-08-11 17:29:00,91.9,78.4,30.04,ESE,121,9.0,17.0,65,0.00,,,0.00,527,Wunderground v.1.15,2013-08-11 21:29:00,
2013-08-11 17:36:00,91.8,78.4,30.05,SE,128,9.0,11.0,65,0.00,,,0.00,482,Wunderground v.1.15,2013-08-11 21:36:00,
2013-08-11 17:41:00,91.8,78.4,30.05,SE,128,8.0,10.0,65,0.00,,,0.00,478,Wunderground v.1.15,2013-08-11 21:41:00,
2013-08-11 17:48:00,91.5,78.1,30.04,ESE,115,9.0,12.0,65,0.00,,,0.00,454,Wunderground v.1.15,2013-08-11 21:48:00,
2013-08-11 17:53:00,91.2,77.8,30.04,SE,128,9.0,11.0,65,0.00,,,0.00,418,Wunderground v.1.15,2013-08-11 21:53:00,
2013-08-11 17:59:00,91.0,77.6,30.04,SE,138,9.0,13.0,65,0.00,,,0.00,374,Wunderground v.1.15,2013-08-11 21:59:00,
2013-08-11 18:04:00,90.8,77.9,30.05,SE,138,10.0,17.0,66,0.00,,,0.00,367,Wunderground v.1.15,2013-08-11 22:04:00,
2013-08-11 18:09:00,90.6,77.7,30.05,SE,128,10.0,17.0,66,0.00,,,0.00,343,Wunderground v.1.15,2013-08-11 22:09:00,
2013-08-11 18:15:00,90.5,77.6,30.05,SE,144,9.0,17.0,66,0.00,,,0.00,345,Wunderground v.1.15,2013-08-11 22:15:00,
2013-08-11 18:21:00,90.2,76.8,30.05,ESE,113,9.0,17.0,65,0.00,,,0.00,323,Wunderground v.1.15,2013-08-11 22:21:00,
2013-08-11 18:28:00,89.9,76.6,30.05,SE,128,9.0,17.0,65,0.00,,,0.00,283,Wunderground v.1.15,2013-08-11 22:28:00,
2013-08-11 18:33:00,89.6,77.2,30.05,SE,133,9.0,17.0,67,0.00,,,0.00,272,Wunderground v.1.15,2013-08-11 22:33:00,
2013-08-11 18:38:00,89.4,76.5,30.05,ESE,119,10.0,17.0,66,0.00,,,0.00,239,Wunderground v.1.15,2013-08-11 22:38:00,
2013-08-11 18:44:00,89.2,75.0,30.05,SE,128,8.0,9.0,63,0.00,,,0.00,223,Wunderground v.1.15,2013-08-11 22:44:00,
2013-08-11 18:49:00,88.9,74.7,30.05,ESE,122,8.0,13.0,63,0.00,,,0.00,185,Wunderground v.1.15,2013-08-11 22:49:00,
2013-08-11 18:54:00,88.6,74.4,30.05,SE,133,9.0,11.0,63,0.00,,,0.00,171,Wunderground v.1.15,2013-08-11 22:54:00,
2013-08-11 19:00:00,88.4,73.7,30.06,ESE,119,9.0,9.0,62,0.00,,,0.00,158,Wunderground v.1.15,2013-08-11 23:00:00,
2013-08-11 19:05:00,88.1,73.4,30.06,SE,128,9.0,16.0,62,0.00,,,0.00,141,Wunderground v.1.15,2013-08-11 23:05:00,
2013-08-11 19:11:00,88.0,73.8,30.06,ESE,121,9.0,16.0,63,0.00,,,0.00,125,Wunderground v.1.15,2013-08-11 23:11:00,
2013-08-11 19:16:00,87.8,74.1,30.06,SE,128,8.0,16.0,64,0.00,,,0.00,107,Wunderground v.1.15,2013-08-11 23:16:00,
2013-08-11 19:22:00,87.5,73.8,30.06,SE,128,6.0,16.0,64,0.00,,,0.00,88,Wunderground v.1.15,2013-08-11 23:22:00,
2013-08-11 19:28:00,87.2,73.1,30.05,SE,128,7.0,16.0,63,0.00,,,0.00,67,Wunderground v.1.15,2013-08-11 23:28:00,
2013-08-11 19:34:00,86.8,72.7,30.06,ESE,121,8.0,16.0,63,0.00,,,0.00,53,Wunderground v.1.15,2013-08-11 23:34:00,
2013-08-11 19:40:00,86.5,72.9,30.06,ESE,115,7.0,7.0,64,0.00,,,0.00,42,Wunderground v.1.15,2013-08-11 23:40:00,
2013-08-11 19:45:00,86.3,72.7,30.06,ESE,113,6.0,7.0,64,0.00,,,0.00,33,Wunderground v.1.15,2013-08-11 23:45:00,
2013-08-11 19:52:00,85.9,72.8,30.07,ESE,117,4.0,5.0,65,0.00,,,0.00,21,Wunderground v.1.15,2013-08-11 23:52:00,
2013-08-11 19:57:00,85.6,72.9,30.07,ESE,121,5.0,7.0,66,0.00,,,0.00,16,Wunderground v.1.15,2013-08-11 23:57:00,
2013-08-11 20:03:00,85.4,73.2,30.07,ESE,117,6.0,15.0,67,0.00,,,0.00,9,Wunderground v.1.15,2013-08-12 00:03:00,
2013-08-11 20:08:00,85.2,73.4,30.07,ESE,115,5.0,15.0,68,0.00,,,0.00,5,Wunderground v.1.15,2013-08-12 00:08:00,
2013-08-11 20:14:00,84.9,73.2,30.08,ESE,119,4.0,15.0,68,0.00,,,0.00,0,Wunderground v.1.15,2013-08-12 00:14:00,
2013-08-11 20:19:00,84.7,73.4,30.08,ESE,103,5.0,15.0,69,0.00,,,0.00,0,Wunderground v.1.15,2013-08-12 00:19:00,
2013-08-11 20:24:00,84.5,74.1,30.08,ESE,115,6.0,15.0,71,0.00,,,0.00,0,Wunderground v.1.15,2013-08-12 00:24:00,
2013-08-11 20:31:00,84.2,73.8,30.08,SE,128,5.0,15.0,71,0.00,,,0.00,0,Wunderground v.1.15,2013-08-12 00:31:00,
2013-08-11 20:36:00,84.1,74.1,30.08,SE,133,5.0,15.0,72,0.00,,,0.00,0,Wunderground v.1.15,2013-08-12 00:36:00,
2013-08-11 20:41:00,83.9,73.9,30.08,SE,128,5.0,5.0,72,0.00,,,0.00,0,Wunderground v.1.15,2013-08-12 00:41:00,
2013-08-11 20:47:00,83.7,74.5,30.08,ESE,117,5.0,8.0,74,0.00,,,0.00,0,Wunderground v.1.15,2013-08-12 00:47:00,
2013-08-11 20:52:00,83.6,74.8,30.08,SE,128,5.0,5.0,75,0.00,,,0.00,0,Wunderground v.1.15,2013-08-12 00:52:00,
2013-08-11 20:57:00,83.4,74.6,30.08,SE,128,5.0,6.0,75,0.00,,,0.00,0,Wunderground v.1.15,2013-08-12 00:57:00,
2013-08-11 21:04:00,83.2,74.8,30.09,SE,128,4.0,13.0,76,0.00,,,0.00,0,Wunderground v.1.15,2013-08-12 01:04:00,
2013-08-11 21:10:00,82.9,74.9,30.09,SE,128,4.0,13.0,77,0.00,,,0.00,0,Wunderground v.1.15,2013-08-12 01:10:00,
2013-08-11 21:16:00,82.7,75.1,30.09,SE,128,4.0,13.0,78,0.00,,,0.00,0,Wunderground v.1.15,2013-08-12 01:16:00,
2013-08-11 21:21:00,82.6,75.0,30.09,SE,128,4.0,13.0,78,0.00,,,0.00,0,Wunderground v.1.15,2013-08-12 01:21:00,
2013-08-11 21:27:00,82.4,75.2,30.09,SE,128,5.0,13.0,79,0.00,,,0.00,0,Wunderground v.1.15,2013-08-12 01:27:00,
2013-08-11 21:32:00,82.3,75.1,30.09,SE,128,4.0,13.0,79,0.00,,,0.00,0,Wunderground v.1.15,2013-08-12 01:32:00,
2013-08-11 21:37:00,82.2,75.0,30.09,SE,128,5.0,13.0,79,0.00,,,0.00,0,Wunderground v.1.15,2013-08-12 01:37:00,
2013-08-11 21:42:00,82.1,75.7,30.09,SE,128,5.0,5.0,81,0.00,,,0.00,0,Wunderground v.1.15,2013-08-12 01:42:00,
2013-08-11 21:48:00,81.9,75.5,30.09,SE,128,4.0,5.0,81,0.00,,,0.00,0,Wunderground v.1.15,2013-08-12 01:48:00,
2013-08-11 21:53:00,81.8,75.4,30.09,SE,133,4.0,7.0,81,0.00,,,0.00,0,Wunderground v.1.15,2013-08-12 01:53:00,
2013-08-11 22:00:00,81.6,75.6,30.10,SE,133,4.0,4.0,82,0.00,,,0.00,0,Wunderground v.1.15,2013-08-12 02:00:00,
2013-08-11 22:06:00,81.5,75.5,30.10,SE,138,5.0,9.0,82,0.00,,,0.00,0,Wunderground v.1.15,2013-08-12 02:06:00,
2013-08-11 22:11:00,81.4,75.4,30.10,SE,138,5.0,9.0,82,0.00,,,0.00,0,Wunderground v.1.15,2013-08-12 02:11:00,
2013-08-11 22:17:00,81.2,75.2,30.10,SE,138,4.0,9.0,82,0.00,,,0.00,0,Wunderground v.1.15,2013-08-12 02:17:00,
2013-08-11 22:22:00,81.2,75.5,30.10,SE,138,3.0,9.0,83,0.00,,,0.00,0,Wunderground v.1.15,2013-08-12 02:22:00,
2013-08-11 22:29:00,81.0,75.3,30.11,SE,138,3.0,9.0,83,0.00,,,0.00,0,Wunderground v.1.15,2013-08-12 02:29:00,
2013-08-11 22:35:00,80.9,75.6,30.11,SE,138,3.0,9.0,84,0.00,,,0.00,0,Wunderground v.1.15,2013-08-12 02:35:00,
2013-08-11 22:40:00,80.8,75.5,30.11,SE,138,3.0,3.0,84,0.00,,,0.00,0,Wunderground v.1.15,2013-08-12 02:40:00,
2013-08-11 22:46:00,80.7,75.4,30.11,SE,138,3.0,4.0,84,0.00,,,0.00,0,Wunderground v.1.15,2013-08-12 02:46:00,
2013-08-11 22:52:00,80.6,75.3,30.11,SE,138,2.0,3.0,84,0.00,,,0.00,0,Wunderground v.1.15,2013-08-12 02:52:00,
2013-08-11 22:57:00,80.6,75.7,30.11,SE,138,2.0,4.0,85,0.00,,,0.00,0,Wunderground v.1.15,2013-08-12 02:57:00,
2013-08-11 23:03:00,80.5,75.6,30.11,SE,138,3.0,9.0,85,0.00,,,0.00,0,Wunderground v.1.15,2013-08-12 03:03:00,
2013-08-11 23:09:00,80.6,76.0,30.11,SE,138,4.0,9.0,86,0.00,,,0.00,0,Wunderground v.1.15,2013-08-12 03:09:00,
2013-08-11 23:15:00,80.6,76.0,30.11,SE,138,3.0,9.0,86,0.00,,,0.00,0,Wunderground v.1.15,2013-08-12 03:15:00,
2013-08-11 23:20:00,81.0,76.8,30.11,SSE,166,4.0,9.0,87,0.00,,,0.00,0,Wunderground v.1.15,2013-08-12 03:20:00,
2013-08-11 23:25:00,81.4,77.2,30.11,South,172,5.0,9.0,87,0.00,,,0.00,0,Wunderground v.1.15,2013-08-12 03:25:00,
2013-08-11 23:31:00,81.6,77.4,30.11,South,171,6.0,7.0,87,0.00,,,0.00,0,Wunderground v.1.15,2013-08-12 03:31:00,
2013-08-11 23:36:00,81.5,76.9,30.11,South,169,6.0,9.0,86,0.00,,,0.00,0,Wunderground v.1.15,2013-08-12 03:36:00,
2013-08-11 23:42:00,81.5,77.3,30.11,South,173,6.0,6.0,87,0.00,,,0.00,0,Wunderground v.1.15,2013-08-12 03:42:00,
2013-08-11 23:47:00,81.4,77.2,30.11,South,170,6.0,6.0,87,0.00,,,0.00,0,Wunderground v.1.15,2013-08-12 03:47:00,
2013-08-11 23:52:00,81.3,77.1,30.11,South,171,6.0,8.0,87,0.00,,,0.00,0,Wunderground v.1.15,2013-08-12 03:52:00,
2013-08-11 23:58:00,81.3,77.1,30.11,South,181,6.0,8.0,87,0.00,,,0.00,0,Wunderground v.1.15,2013-08-12 03:58:00,